Sunday, October 21, 2018, 1:55 AM EDT
Back to Local

KSWF, Newburgh / Stewart

Location: New Windsor, NY, United States Lat: 41.5
Local Time: 1:55 AM EDT ( 5:55 GMT) Lon: -74.1
Time Zone: US/Eastern Elev: 492 ft

Show me the last for .
Show Decoded

2018-10-21 00:45 METAR KSWF 210445Z 31004KT 7SM -RA OVC030 08/08 A2964 =
2018-10-20 23:45 METAR KSWF 210345Z 28004KT 7SM -RA OVC040 08/08 A2964 =
2018-10-20 22:45 METAR KSWF 210245Z 27005KT 10SM BKN050 OVC070 09/07 A2963 =
2018-10-20 21:45 METAR KSWF 210145Z 00000KT 10SM BKN060 10/07 A2963 =
2018-10-20 20:45 METAR KSWF 210045Z 23006KT 10SM BKN070 10/06 A2962 =
2018-10-20 19:45 METAR KSWF 202345Z 29006KT 10SM BKN070 10/07 A2963 =
2018-10-20 18:45 METAR KSWF 202245Z 00000KT 10SM BKN070 11/07 A2962 =
2018-10-20 17:45 METAR KSWF 202145Z 00000KT 20SM SCT045 13/06 A2960 =
2018-10-20 16:45 METAR KSWF 202045Z 31012KT 20SM BKN045 13/07 A2962 =
2018-10-20 15:45 METAR KSWF 201945Z 29012G18KT 20SM BKN060 15/08 A2962 =
2018-10-20 14:45 METAR KSWF 201845Z 27012G20KT 20SM SCT030 BKN050 15/08 A2962 =
2018-10-20 13:45 METAR KSWF 201745Z 28012KT 20SM BKN030 BKN050 16/09 A2965 =
2018-10-20 12:45 METAR KSWF 201645Z 28012KT 20SM BKN020 BKN050 15/09 A2968 =
2018-10-20 11:45 METAR KSWF 201545Z 28010G20KT 15SM BKN020 BKN050 14/10 A2970 =
2018-10-20 10:45 METAR KSWF 201445Z 28010G20KT 15SM BKN020 BKN050 14/11 A2970 =
2018-10-20 10:20 METAR KSWF 201420Z 27008G16KT 15SM SCT015 SCT050 14/11 A2971 =
2018-10-20 09:45 METAR KSWF 201345Z 28010G18KT 10SM BKN015 BKN035 13/11 A2972 =
2018-10-20 07:45 METAR KSWF 201145Z 22010KT 7SM -DZ OVC030 11/10 A2972 =
2018-10-20 06:45 METAR KSWF 201045Z 23006KT 10SM -DZ SCT035 OVC045 11/10 A2972 =
2018-10-20 05:45 METAR KSWF 200945Z 23006KT 10SM OVC060 10/10 A2973 =
2018-10-20 04:45 METAR KSWF 200845Z 23006KT 10SM BKN050 OVC060 11/10 A2974 =
2018-10-20 03:45 METAR KSWF 200745Z 23006KT 10SM -DZ FEW045 OVC060 10/09 A2977 =
2018-10-20 02:45 METAR KSWF 200645Z 23006KT 10SM FEW045 OVC060 11/09 A2981 =

Support USWX by starting your Amazon purchase here.